Ocean Alliance — H8WU — position and weather

sailwx.info

Track history (hours):
 
Tides and Currents Weather Stations Pressure Air Temp Water Temp Dewpoint Dewpoint Depression Visibility Wind Speed Wind Dir Waves Ship Positions

Ocean Alliance

Last reported at 2017-Sep-26 17:13 UTC. Time now 2017-Oct-18 02:40 UTC.
Position N 01°09' E 103°48'.
Warning: this ship's position is 21 days out of date.

Length 190 m; draft 12 m.

Type: Cargo ship. MMSI: 370912000.

Date/timePositionNaut miles runAvg speedWind from/ knotsBaromVisibWave heightAir tempDewpointWater temp
2017-Sep-26 17:13N 01°09' E 103°48'0 1.8
2017-Sep-26 16:57N 01°09' E 103°47'1 2.0
2017-Sep-26 16:23N 01°08' E 103°47'1 1.9
2017-Sep-26 15:51N 01°08' E 103°46'20 2.2
2017-Sep-26 06:57N 01°15' E 104°04'4 9.7
2017-Sep-26 06:30N 01°14' E 104°00'5 9.7
2017-Sep-26 06:00N 01°13' E 103°55'5 9.2
2017-Sep-26 05:30N 01°11' E 103°51'4 8.9
2017-Sep-26 05:00N 01°09' E 103°47'5 9.0
2017-Sep-26 04:30N 01°06' E 103°44'5 9.0
2017-Sep-26 04:00N 01°03' E 103°40'4 8.2
2017-Sep-26 03:30N 01°04' E 103°36'4 8.5
2017-Sep-26 03:00N 01°06' E 103°33'5 8.4
2017-Sep-26 02:26N 01°09' E 103°28'4 8.2
2017-Sep-26 01:56N 01°11' E 103°25'7 8.2
2017-Sep-26 01:07N 01°15' E 103°20'2 8.2
2017-Sep-26 00:54N 01°17' E 103°19'  
Track history (hours):
 
Tides and Currents Weather Stations Pressure Air Temp Water Temp Dewpoint Dewpoint Depression Visibility Wind Speed Wind Dir Waves Ship Positions

Ocean Alliance

Last reported at 2017-Sep-26 17:13 UTC. Time now 2017-Oct-18 02:40 UTC.
Position N 01°09' E 103°48'.
Warning: this ship's position is 21 days out of date.

Length 190 m; draft 12 m.

Type: Cargo ship. MMSI: 370912000.

Date/timePositionNaut miles runAvg speedWind from/ knotsBaromVisibWave heightAir tempDewpointWater temp
2017-Sep-26 17:13N 01°09' E 103°48'0 1.8
2017-Sep-26 16:57N 01°09' E 103°47'1 2.0
2017-Sep-26 16:23N 01°08' E 103°47'1 1.9
2017-Sep-26 15:51N 01°08' E 103°46'20 2.2
2017-Sep-26 06:57N 01°15' E 104°04'4 9.7
2017-Sep-26 06:30N 01°14' E 104°00'5 9.7
2017-Sep-26 06:00N 01°13' E 103°55'5 9.2
2017-Sep-26 05:30N 01°11' E 103°51'4 8.9
2017-Sep-26 05:00N 01°09' E 103°47'5 9.0
2017-Sep-26 04:30N 01°06' E 103°44'5 9.0
2017-Sep-26 04:00N 01°03' E 103°40'4 8.2
2017-Sep-26 03:30N 01°04' E 103°36'4 8.5
2017-Sep-26 03:00N 01°06' E 103°33'5 8.4
2017-Sep-26 02:26N 01°09' E 103°28'4 8.2
2017-Sep-26 01:56N 01°11' E 103°25'7 8.2
2017-Sep-26 01:07N 01°15' E 103°20'2 8.2
2017-Sep-26 00:54N 01°17' E 103°19'  

Dump ship's entire track history